sensor_id;sensor_type;location;lat;lon;timestamp;temperature;humidity
4356;DHT22;64374;51.482;7.408;2023-03-01T00:01:50;8.00;80.60
4356;DHT22;64374;51.482;7.408;2023-03-01T00:04:19;7.90;80.30
4356;DHT22;64374;51.482;7.408;2023-03-01T00:06:47;7.70;80.60
4356;DHT22;64374;51.482;7.408;2023-03-01T00:09:16;7.80;80.80
4356;DHT22;64374;51.482;7.408;2023-03-01T00:11:45;7.90;80.70
4356;DHT22;64374;51.482;7.408;2023-03-01T00:14:14;7.70;80.70
4356;DHT22;64374;51.482;7.408;2023-03-01T00:16:45;7.70;81.30
4356;DHT22;64374;51.482;7.408;2023-03-01T00:19:17;7.70;81.10
4356;DHT22;64374;51.482;7.408;2023-03-01T00:21:46;7.80;81.20
4356;DHT22;64374;51.482;7.408;2023-03-01T00:24:14;7.90;81.00
4356;DHT22;64374;51.482;7.408;2023-03-01T00:26:43;7.80;80.80
4356;DHT22;64374;51.482;7.408;2023-03-01T00:29:11;7.80;80.90
4356;DHT22;64374;51.482;7.408;2023-03-01T00:31:39;7.80;80.90
4356;DHT22;64374;51.482;7.408;2023-03-01T00:34:09;7.80;80.80
4356;DHT22;64374;51.482;7.408;2023-03-01T00:36:38;7.50;81.10
4356;DHT22;64374;51.482;7.408;2023-03-01T00:39:11;7.40;81.50
4356;DHT22;64374;51.482;7.408;2023-03-01T00:41:39;7.60;81.40
4356;DHT22;64374;51.482;7.408;2023-03-01T00:44:08;7.60;81.70
4356;DHT22;64374;51.482;7.408;2023-03-01T00:46:36;7.50;81.70
4356;DHT22;64374;51.482;7.408;2023-03-01T00:49:05;7.40;81.50
4356;DHT22;64374;51.482;7.408;2023-03-01T00:51:34;7.50;82.10
4356;DHT22;64374;51.482;7.408;2023-03-01T00:54:03;7.60;81.80
4356;DHT22;64374;51.482;7.408;2023-03-01T00:56:32;7.60;81.90
4356;DHT22;64374;51.482;7.408;2023-03-01T00:59:01;7.40;82.00
4356;DHT22;64374;51.482;7.408;2023-03-01T01:01:30;7.30;82.30
4356;DHT22;64374;51.482;7.408;2023-03-01T01:04:00;7.10;82.60
4356;DHT22;64374;51.482;7.408;2023-03-01T01:06:32;7.40;82.40
4356;DHT22;64374;51.482;7.408;2023-03-01T01:09:03;7.50;82.40
4356;DHT22;64374;51.482;7.408;2023-03-01T01:11:33;7.30;82.20
4356;DHT22;64374;51.482;7.408;2023-03-01T01:14:04;7.40;82.30
4356;DHT22;64374;51.482;7.408;2023-03-01T01:16:33;7.70;82.40
4356;DHT22;64374;51.482;7.408;2023-03-01T01:19:05;7.60;82.40
4356;DHT22;64374;51.482;7.408;2023-03-01T01:22:02;7.80;82.20
4356;DHT22;64374;51.482;7.408;2023-03-01T01:24:32;7.50;82.30
4356;DHT22;64374;51.482;7.408;2023-03-01T01:27:00;7.80;82.20
4356;DHT22;64374;51.482;7.408;2023-03-01T01:29:28;7.70;82.00
4356;DHT22;64374;51.482;7.408;2023-03-01T01:31:57;7.70;82.20
4356;DHT22;64374;51.482;7.408;2023-03-01T01:34:25;7.70;81.90
4356;DHT22;64374;51.482;7.408;2023-03-01T01:36:54;7.50;82.30
4356;DHT22;64374;51.482;7.408;2023-03-01T01:39:23;7.30;82.60
4356;DHT22;64374;51.482;7.408;2023-03-01T01:41:53;7.30;82.90
4356;DHT22;64374;51.482;7.408;2023-03-01T01:44:22;7.10;83.10
4356;DHT22;64374;51.482;7.408;2023-03-01T01:46:54;7.20;83.80
4356;DHT22;64374;51.482;7.408;2023-03-01T01:49:28;7.10;83.60
4356;DHT22;64374;51.482;7.408;2023-03-01T01:52:05;7.20;83.90
4356;DHT22;64374;51.482;7.408;2023-03-01T01:54:40;7.20;84.10
4356;DHT22;64374;51.482;7.408;2023-03-01T01:57:16;7.10;84.20
4356;DHT22;64374;51.482;7.408;2023-03-01T01:59:50;7.20;84.60
4356;DHT22;64374;51.482;7.408;2023-03-01T02:02:21;7.20;84.90
4356;DHT22;64374;51.482;7.408;2023-03-01T02:05:06;6.90;85.00
4356;DHT22;64374;51.482;7.408;2023-03-01T02:07:38;6.90;85.10
4356;DHT22;64374;51.482;7.408;2023-03-01T02:10:09;6.80;85.20
4356;DHT22;64374;51.482;7.408;2023-03-01T02:12:41;6.80;85.70
4356;DHT22;64374;51.482;7.408;2023-03-01T02:15:10;6.60;86.30
4356;DHT22;64374;51.482;7.408;2023-03-01T02:17:39;6.70;86.40
4356;DHT22;64374;51.482;7.408;2023-03-01T02:20:17;6.80;86.70
4356;DHT22;64374;51.482;7.408;2023-03-01T02:22:48;7.00;86.20
4356;DHT22;64374;51.482;7.408;2023-03-01T02:25:34;7.00;86.00
4356;DHT22;64374;51.482;7.408;2023-03-01T02:30:52;7.20;85.60
4356;DHT22;64374;51.482;7.408;2023-03-01T02:33:39;7.30;85.10
4356;DHT22;64374;51.482;7.408;2023-03-01T02:36:10;7.10;85.20
4356;DHT22;64374;51.482;7.408;2023-03-01T02:38:42;6.90;85.60
4356;DHT22;64374;51.482;7.408;2023-03-01T02:41:13;6.80;86.20
4356;DHT22;64374;51.482;7.408;2023-03-01T02:43:43;6.80;86.80
4356;DHT22;64374;51.482;7.408;2023-03-01T02:46:17;6.70;86.80
4356;DHT22;64374;51.482;7.408;2023-03-01T02:48:49;6.60;87.40
4356;DHT22;64374;51.482;7.408;2023-03-01T02:51:25;6.70;87.50
4356;DHT22;64374;51.482;7.408;2023-03-01T02:54:03;6.70;87.60
4356;DHT22;64374;51.482;7.408;2023-03-01T02:56:34;6.90;87.10
4356;DHT22;64374;51.482;7.408;2023-03-01T02:59:04;6.90;87.20
4356;DHT22;64374;51.482;7.408;2023-03-01T03:01:34;6.50;87.40
4356;DHT22;64374;51.482;7.408;2023-03-01T03:04:10;6.50;87.80
4356;DHT22;64374;51.482;7.408;2023-03-01T03:06:38;6.70;88.10
4356;DHT22;64374;51.482;7.408;2023-03-01T03:09:10;7.00;87.90
4356;DHT22;64374;51.482;7.408;2023-03-01T03:11:42;6.90;87.40
4356;DHT22;64374;51.482;7.408;2023-03-01T03:14:12;6.90;87.10
4356;DHT22;64374;51.482;7.408;2023-03-01T03:16:48;6.80;87.80
4356;DHT22;64374;51.482;7.408;2023-03-01T03:19:20;6.70;87.90
4356;DHT22;64374;51.482;7.408;2023-03-01T03:21:48;6.50;88.30
4356;DHT22;64374;51.482;7.408;2023-03-01T03:24:16;6.70;88.60
4356;DHT22;64374;51.482;7.408;2023-03-01T03:27:07;6.80;88.10
4356;DHT22;64374;51.482;7.408;2023-03-01T03:29:36;6.70;87.80
4356;DHT22;64374;51.482;7.408;2023-03-01T03:32:06;6.70;88.40
4356;DHT22;64374;51.482;7.408;2023-03-01T03:34:34;6.50;88.40
4356;DHT22;64374;51.482;7.408;2023-03-01T03:37:03;6.70;88.40
4356;DHT22;64374;51.482;7.408;2023-03-01T03:39:51;6.70;88.30
4356;DHT22;64374;51.482;7.408;2023-03-01T03:42:21;7.00;88.30
4356;DHT22;64374;51.482;7.408;2023-03-01T03:44:49;6.80;88.10
4356;DHT22;64374;51.482;7.408;2023-03-01T03:47:19;6.60;88.10
4356;DHT22;64374;51.482;7.408;2023-03-01T03:49:47;6.70;88.30
4356;DHT22;64374;51.482;7.408;2023-03-01T03:52:16;6.60;88.70
4356;DHT22;64374;51.482;7.408;2023-03-01T03:54:44;6.50;88.80
4356;DHT22;64374;51.482;7.408;2023-03-01T03:57:12;6.80;89.10
4356;DHT22;64374;51.482;7.408;2023-03-01T03:59:41;6.80;88.50
4356;DHT22;64374;51.482;7.408;2023-03-01T04:02:09;6.70;88.40
4356;DHT22;64374;51.482;7.408;2023-03-01T04:04:39;6.70;88.50
4356;DHT22;64374;51.482;7.408;2023-03-01T04:07:07;6.70;88.10
4356;DHT22;64374;51.482;7.408;2023-03-01T04:09:36;6.70;89.30
4356;DHT22;64374;51.482;7.408;2023-03-01T04:12:05;6.50;88.90
4356;DHT22;64374;51.482;7.408;2023-03-01T04:14:33;6.60;89.00
4356;DHT22;64374;51.482;7.408;2023-03-01T04:17:02;6.60;88.30
4356;DHT22;64374;51.482;7.408;2023-03-01T04:19:33;6.70;88.70
4356;DHT22;64374;51.482;7.408;2023-03-01T04:22:04;6.50;89.40
4356;DHT22;64374;51.482;7.408;2023-03-01T04:24:37;6.50;89.40
4356;DHT22;64374;51.482;7.408;2023-03-01T04:27:08;6.30;89.60
4356;DHT22;64374;51.482;7.408;2023-03-01T04:29:36;6.40;90.00
4356;DHT22;64374;51.482;7.408;2023-03-01T04:32:05;6.60;89.90
4356;DHT22;64374;51.482;7.408;2023-03-01T04:34:33;6.50;90.00
4356;DHT22;64374;51.482;7.408;2023-03-01T04:37:01;6.40;89.80
4356;DHT22;64374;51.482;7.408;2023-03-01T04:39:31;6.30;90.10
4356;DHT22;64374;51.482;7.408;2023-03-01T04:41:59;6.40;90.20
4356;DHT22;64374;51.482;7.408;2023-03-01T04:44:28;6.40;90.30
4356;DHT22;64374;51.482;7.408;2023-03-01T04:46:56;6.20;90.30
4356;DHT22;64374;51.482;7.408;2023-03-01T04:49:24;6.30;90.50
4356;DHT22;64374;51.482;7.408;2023-03-01T04:51:52;6.50;90.40
4356;DHT22;64374;51.482;7.408;2023-03-01T04:54:20;6.50;90.20
4356;DHT22;64374;51.482;7.408;2023-03-01T04:56:51;6.50;90.00
4356;DHT22;64374;51.482;7.408;2023-03-01T04:59:20;6.60;90.00
4356;DHT22;64374;51.482;7.408;2023-03-01T05:01:50;6.10;90.30
4356;DHT22;64374;51.482;7.408;2023-03-01T05:04:19;6.10;90.40
4356;DHT22;64374;51.482;7.408;2023-03-01T05:06:48;6.10;90.50
4356;DHT22;64374;51.482;7.408;2023-03-01T05:09:16;6.00;90.80
4356;DHT22;64374;51.482;7.408;2023-03-01T05:11:45;6.30;90.80
4356;DHT22;64374;51.482;7.408;2023-03-01T05:14:15;6.30;90.50
4356;DHT22;64374;51.482;7.408;2023-03-01T05:16:43;6.30;90.70
4356;DHT22;64374;51.482;7.408;2023-03-01T05:19:11;6.20;90.60
4356;DHT22;64374;51.482;7.408;2023-03-01T05:21:43;5.70;91.20
4356;DHT22;64374;51.482;7.408;2023-03-01T05:24:33;5.70;91.60
4356;DHT22;64374;51.482;7.408;2023-03-01T05:27:02;5.70;91.70
4356;DHT22;64374;51.482;7.408;2023-03-01T05:29:32;5.70;91.90
4356;DHT22;64374;51.482;7.408;2023-03-01T05:32:02;5.80;91.90
4356;DHT22;64374;51.482;7.408;2023-03-01T05:34:33;5.80;91.90
4356;DHT22;64374;51.482;7.408;2023-03-01T05:37:02;5.70;92.10
4356;DHT22;64374;51.482;7.408;2023-03-01T05:39:32;5.60;92.30
4356;DHT22;64374;51.482;7.408;2023-03-01T05:42:01;5.50;92.30
4356;DHT22;64374;51.482;7.408;2023-03-01T05:44:32;5.80;92.20
4356;DHT22;64374;51.482;7.408;2023-03-01T05:47:00;5.60;92.20
4356;DHT22;64374;51.482;7.408;2023-03-01T05:49:29;5.80;91.90
4356;DHT22;64374;51.482;7.408;2023-03-01T05:51:59;5.80;92.20
4356;DHT22;64374;51.482;7.408;2023-03-01T05:54:27;5.90;91.80
4356;DHT22;64374;51.482;7.408;2023-03-01T05:56:58;5.80;91.90
4356;DHT22;64374;51.482;7.408;2023-03-01T05:59:26;5.50;92.20
4356;DHT22;64374;51.482;7.408;2023-03-01T06:01:55;5.50;92.30
4356;DHT22;64374;51.482;7.408;2023-03-01T06:04:23;5.50;92.60
4356;DHT22;64374;51.482;7.408;2023-03-01T06:06:51;5.50;92.80
4356;DHT22;64374;51.482;7.408;2023-03-01T06:09:20;5.70;92.60
4356;DHT22;64374;51.482;7.408;2023-03-01T06:11:48;5.70;92.40
4356;DHT22;64374;51.482;7.408;2023-03-01T06:14:16;5.60;92.50
4356;DHT22;64374;51.482;7.408;2023-03-01T06:16:46;5.40;92.80
4356;DHT22;64374;51.482;7.408;2023-03-01T06:19:16;5.30;93.00
4356;DHT22;64374;51.482;7.408;2023-03-01T06:21:46;5.30;93.30
4356;DHT22;64374;51.482;7.408;2023-03-01T06:24:14;5.40;93.30
4356;DHT22;64374;51.482;7.408;2023-03-01T06:26:42;5.30;93.50
4356;DHT22;64374;51.482;7.408;2023-03-01T06:29:10;5.20;93.50
4356;DHT22;64374;51.482;7.408;2023-03-01T06:31:43;5.20;93.70
4356;DHT22;64374;51.482;7.408;2023-03-01T06:34:12;5.20;93.80
4356;DHT22;64374;51.482;7.408;2023-03-01T06:36:42;5.30;94.00
4356;DHT22;64374;51.482;7.408;2023-03-01T06:39:18;5.40;94.00
4356;DHT22;64374;51.482;7.408;2023-03-01T06:41:46;5.50;94.00
4356;DHT22;64374;51.482;7.408;2023-03-01T06:44:15;5.50;93.80
4356;DHT22;64374;51.482;7.408;2023-03-01T06:46:43;5.40;94.00
4356;DHT22;64374;51.482;7.408;2023-03-01T06:49:11;5.30;93.90
4356;DHT22;64374;51.482;7.408;2023-03-01T06:51:47;5.40;94.10
4356;DHT22;64374;51.482;7.408;2023-03-01T06:54:15;5.50;94.30
4356;DHT22;64374;51.482;7.408;2023-03-01T06:56:46;5.40;94.40
4356;DHT22;64374;51.482;7.408;2023-03-01T06:59:16;5.50;94.30
4356;DHT22;64374;51.482;7.408;2023-03-01T07:01:44;5.40;94.50
4356;DHT22;64374;51.482;7.408;2023-03-01T07:04:13;5.40;94.50
4356;DHT22;64374;51.482;7.408;2023-03-01T07:06:45;5.20;94.70
4356;DHT22;64374;51.482;7.408;2023-03-01T07:09:21;5.20;95.00
4356;DHT22;64374;51.482;7.408;2023-03-01T07:11:49;5.40;95.10
4356;DHT22;64374;51.482;7.408;2023-03-01T07:14:18;5.40;95.10
4356;DHT22;64374;51.482;7.408;2023-03-01T07:16:47;5.50;95.10
4356;DHT22;64374;51.482;7.408;2023-03-01T07:19:16;5.30;95.10
4356;DHT22;64374;51.482;7.408;2023-03-01T07:21:46;5.50;95.40
4356;DHT22;64374;51.482;7.408;2023-03-01T07:24:14;5.40;95.30
4356;DHT22;64374;51.482;7.408;2023-03-01T07:26:42;5.50;95.30
4356;DHT22;64374;51.482;7.408;2023-03-01T07:29:14;5.70;95.20
4356;DHT22;64374;51.482;7.408;2023-03-01T07:31:42;5.60;95.00
4356;DHT22;64374;51.482;7.408;2023-03-01T07:34:13;5.70;95.10
4356;DHT22;64374;51.482;7.408;2023-03-01T07:36:41;5.70;95.00
4356;DHT22;64374;51.482;7.408;2023-03-01T07:39:11;5.70;95.00
4356;DHT22;64374;51.482;7.408;2023-03-01T07:41:39;5.80;94.80
4356;DHT22;64374;51.482;7.408;2023-03-01T07:44:12;5.80;94.90
4356;DHT22;64374;51.482;7.408;2023-03-01T07:46:41;5.70;94.70
4356;DHT22;64374;51.482;7.408;2023-03-01T07:49:09;5.90;94.70
4356;DHT22;64374;51.482;7.408;2023-03-01T07:51:37;5.90;95.00
4356;DHT22;64374;51.482;7.408;2023-03-01T07:54:05;5.70;95.00
4356;DHT22;64374;51.482;7.408;2023-03-01T07:56:35;5.70;94.90
4356;DHT22;64374;51.482;7.408;2023-03-01T07:59:03;5.80;94.70
4356;DHT22;64374;51.482;7.408;2023-03-01T08:01:31;5.70;94.60
4356;DHT22;64374;51.482;7.408;2023-03-01T08:03:59;5.90;94.60
4356;DHT22;64374;51.482;7.408;2023-03-01T08:06:28;5.90;94.50
4356;DHT22;64374;51.482;7.408;2023-03-01T08:08:58;6.20;94.20
4356;DHT22;64374;51.482;7.408;2023-03-01T08:11:26;6.10;94.40
4356;DHT22;64374;51.482;7.408;2023-03-01T08:13:58;6.10;94.40
4356;DHT22;64374;51.482;7.408;2023-03-01T08:16:27;6.30;94.40
4356;DHT22;64374;51.482;7.408;2023-03-01T08:18:56;6.30;94.30
4356;DHT22;64374;51.482;7.408;2023-03-01T08:21:27;6.40;94.20
4356;DHT22;64374;51.482;7.408;2023-03-01T08:23:55;6.40;93.80
4356;DHT22;64374;51.482;7.408;2023-03-01T08:26:25;6.40;94.30
4356;DHT22;64374;51.482;7.408;2023-03-01T08:28:54;6.40;94.10
4356;DHT22;64374;51.482;7.408;2023-03-01T08:31:26;6.60;94.20
4356;DHT22;64374;51.482;7.408;2023-03-01T08:33:57;6.70;94.00
4356;DHT22;64374;51.482;7.408;2023-03-01T08:36:28;6.50;94.00
4356;DHT22;64374;51.482;7.408;2023-03-01T08:38:58;6.40;94.10
4356;DHT22;64374;51.482;7.408;2023-03-01T08:41:27;6.50;94.10
4356;DHT22;64374;51.482;7.408;2023-03-01T08:43:56;6.50;94.00
4356;DHT22;64374;51.482;7.408;2023-03-01T08:46:29;6.40;93.60
4356;DHT22;64374;51.482;7.408;2023-03-01T08:48:59;6.30;93.50
4356;DHT22;64374;51.482;7.408;2023-03-01T08:51:27;6.40;93.90
4356;DHT22;64374;51.482;7.408;2023-03-01T08:53:57;6.50;93.90
4356;DHT22;64374;51.482;7.408;2023-03-01T08:56:26;6.70;93.60
4356;DHT22;64374;51.482;7.408;2023-03-01T08:58:56;6.60;93.80
4356;DHT22;64374;51.482;7.408;2023-03-01T09:01:25;6.80;93.50
4356;DHT22;64374;51.482;7.408;2023-03-01T09:03:55;7.00;93.30
4356;DHT22;64374;51.482;7.408;2023-03-01T09:06:23;7.00;94.60
4356;DHT22;64374;51.482;7.408;2023-03-01T09:08:53;7.10;94.80
4356;DHT22;64374;51.482;7.408;2023-03-01T09:11:21;7.10;93.80
4356;DHT22;64374;51.482;7.408;2023-03-01T09:13:50;7.30;93.40
4356;DHT22;64374;51.482;7.408;2023-03-01T09:16:20;7.00;92.90
4356;DHT22;64374;51.482;7.408;2023-03-01T09:18:50;7.30;93.10
4356;DHT22;64374;51.482;7.408;2023-03-01T09:21:22;7.30;92.80
4356;DHT22;64374;51.482;7.408;2023-03-01T09:24:28;7.40;92.60
4356;DHT22;64374;51.482;7.408;2023-03-01T09:26:57;7.40;92.40
4356;DHT22;64374;51.482;7.408;2023-03-01T09:29:25;7.20;92.20
4356;DHT22;64374;51.482;7.408;2023-03-01T09:31:54;7.30;92.00
4356;DHT22;64374;51.482;7.408;2023-03-01T09:34:23;7.30;92.00
4356;DHT22;64374;51.482;7.408;2023-03-01T09:36:52;7.40;92.10
4356;DHT22;64374;51.482;7.408;2023-03-01T09:39:20;7.70;91.90
4356;DHT22;64374;51.482;7.408;2023-03-01T09:41:52;7.80;91.60
4356;DHT22;64374;51.482;7.408;2023-03-01T09:44:33;7.70;90.70
4356;DHT22;64374;51.482;7.408;2023-03-01T09:47:03;7.40;91.20
4356;DHT22;64374;51.482;7.408;2023-03-01T09:49:34;7.50;91.50
4356;DHT22;64374;51.482;7.408;2023-03-01T09:52:16;7.70;91.20
4356;DHT22;64374;51.482;7.408;2023-03-01T09:54:49;7.40;90.80
4356;DHT22;64374;51.482;7.408;2023-03-01T09:57:28;7.50;91.30
4356;DHT22;64374;51.482;7.408;2023-03-01T10:00:07;7.50;90.90
4356;DHT22;64374;51.482;7.408;2023-03-01T10:02:41;7.60;91.10
4356;DHT22;64374;51.482;7.408;2023-03-01T10:05:29;7.60;90.60
4356;DHT22;64374;51.482;7.408;2023-03-01T10:08:14;7.70;90.60
4356;DHT22;64374;51.482;7.408;2023-03-01T10:10:47;7.90;90.70
4356;DHT22;64374;51.482;7.408;2023-03-01T10:13:19;7.90;90.40
4356;DHT22;64374;51.482;7.408;2023-03-01T10:15:50;8.10;90.30
4356;DHT22;64374;51.482;7.408;2023-03-01T10:18:24;7.80;90.10
4356;DHT22;64374;51.482;7.408;2023-03-01T10:20:57;7.70;90.00
4356;DHT22;64374;51.482;7.408;2023-03-01T10:23:30;7.70;90.50
4356;DHT22;64374;51.482;7.408;2023-03-01T10:26:20;7.90;90.20
4356;DHT22;64374;51.482;7.408;2023-03-01T10:29:01;8.10;89.00
4356;DHT22;64374;51.482;7.408;2023-03-01T10:31:39;8.10;89.20
4356;DHT22;64374;51.482;7.408;2023-03-01T10:34:11;8.20;88.70
4356;DHT22;64374;51.482;7.408;2023-03-01T10:36:41;8.30;89.50
4356;DHT22;64374;51.482;7.408;2023-03-01T10:39:20;8.60;89.10
4356;DHT22;64374;51.482;7.408;2023-03-01T10:41:56;8.80;88.70
4356;DHT22;64374;51.482;7.408;2023-03-01T10:44:40;8.70;87.80
4356;DHT22;64374;51.482;7.408;2023-03-01T10:47:22;9.00;87.90
4356;DHT22;64374;51.482;7.408;2023-03-01T10:50:02;9.70;86.50
4356;DHT22;64374;51.482;7.408;2023-03-01T10:52:33;10.50;83.90
4356;DHT22;64374;51.482;7.408;2023-03-01T10:55:23;11.30;82.00
4356;DHT22;64374;51.482;7.408;2023-03-01T10:58:07;12.10;80.00
4356;DHT22;64374;51.482;7.408;2023-03-01T11:00:46;12.90;77.40
4356;DHT22;64374;51.482;7.408;2023-03-01T11:03:19;13.30;74.60
4356;DHT22;64374;51.482;7.408;2023-03-01T11:05:58;13.30;72.20
4356;DHT22;64374;51.482;7.408;2023-03-01T11:08:39;13.20;72.50
4356;DHT22;64374;51.482;7.408;2023-03-01T11:11:29;13.20;71.90
4356;DHT22;64374;51.482;7.408;2023-03-01T11:14:01;12.90;72.10
4356;DHT22;64374;51.482;7.408;2023-03-01T11:16:59;12.40;73.90
4356;DHT22;64374;51.482;7.408;2023-03-01T11:19:28;11.90;73.60
4356;DHT22;64374;51.482;7.408;2023-03-01T11:22:01;11.70;74.30
4356;DHT22;64374;51.482;7.408;2023-03-01T11:24:36;11.40;74.20
4356;DHT22;64374;51.482;7.408;2023-03-01T11:27:21;11.20;75.10
4356;DHT22;64374;51.482;7.408;2023-03-01T11:29:55;11.20;75.80
4356;DHT22;64374;51.482;7.408;2023-03-01T11:32:29;11.20;75.50
4356;DHT22;64374;51.482;7.408;2023-03-01T11:35:03;11.20;75.50
4356;DHT22;64374;51.482;7.408;2023-03-01T11:37:37;11.30;76.10
4356;DHT22;64374;51.482;7.408;2023-03-01T11:40:13;11.40;79.30
4356;DHT22;64374;51.482;7.408;2023-03-01T11:43:01;11.60;79.30
4356;DHT22;64374;51.482;7.408;2023-03-01T11:45:39;11.70;77.80
4356;DHT22;64374;51.482;7.408;2023-03-01T11:48:29;12.10;76.90
4356;DHT22;64374;51.482;7.408;2023-03-01T11:51:22;11.90;76.30
4356;DHT22;64374;51.482;7.408;2023-03-01T11:54:09;12.00;76.30
4356;DHT22;64374;51.482;7.408;2023-03-01T11:56:45;12.20;75.50
4356;DHT22;64374;51.482;7.408;2023-03-01T11:59:30;12.60;75.50
4356;DHT22;64374;51.482;7.408;2023-03-01T12:02:23;12.50;73.60
4356;DHT22;64374;51.482;7.408;2023-03-01T12:05:17;12.70;74.30
4356;DHT22;64374;51.482;7.408;2023-03-01T12:08:05;12.60;75.60
4356;DHT22;64374;51.482;7.408;2023-03-01T12:10:46;12.90;76.60
4356;DHT22;64374;51.482;7.408;2023-03-01T12:13:27;12.70;73.30
4356;DHT22;64374;51.482;7.408;2023-03-01T12:16:11;12.60;72.50
4356;DHT22;64374;51.482;7.408;2023-03-01T12:19:21;12.70;73.40
4356;DHT22;64374;51.482;7.408;2023-03-01T12:22:06;12.50;72.10
4356;DHT22;64374;51.482;7.408;2023-03-01T12:27:58;12.60;72.70
4356;DHT22;64374;51.482;7.408;2023-03-01T12:30:39;12.70;73.60
4356;DHT22;64374;51.482;7.408;2023-03-01T12:33:22;13.20;71.80
4356;DHT22;64374;51.482;7.408;2023-03-01T12:36:19;13.40;71.20
4356;DHT22;64374;51.482;7.408;2023-03-01T12:38:58;13.40;70.00
4356;DHT22;64374;51.482;7.408;2023-03-01T12:41:40;13.30;69.50
4356;DHT22;64374;51.482;7.408;2023-03-01T12:44:22;13.30;68.60
4356;DHT22;64374;51.482;7.408;2023-03-01T12:47:04;13.20;68.30
4356;DHT22;64374;51.482;7.408;2023-03-01T12:49:38;13.50;69.20
4356;DHT22;64374;51.482;7.408;2023-03-01T12:52:14;13.50;68.50
4356;DHT22;64374;51.482;7.408;2023-03-01T12:54:45;13.70;68.90
4356;DHT22;64374;51.482;7.408;2023-03-01T12:57:20;13.70;67.80
4356;DHT22;64374;51.482;7.408;2023-03-01T13:00:02;13.60;66.70
4356;DHT22;64374;51.482;7.408;2023-03-01T13:02:40;13.60;65.50
4356;DHT22;64374;51.482;7.408;2023-03-01T13:05:26;13.60;65.90
4356;DHT22;64374;51.482;7.408;2023-03-01T13:08:04;13.90;65.70
4356;DHT22;64374;51.482;7.408;2023-03-01T13:10:39;13.80;65.30
4356;DHT22;64374;51.482;7.408;2023-03-01T13:13:14;14.20;65.80
4356;DHT22;64374;51.482;7.408;2023-03-01T13:15:46;14.30;65.30
4356;DHT22;64374;51.482;7.408;2023-03-01T13:18:40;14.30;65.20
4356;DHT22;64374;51.482;7.408;2023-03-01T13:21:12;14.40;65.10
4356;DHT22;64374;51.482;7.408;2023-03-01T13:23:47;14.60;63.30
4356;DHT22;64374;51.482;7.408;2023-03-01T13:26:17;14.90;65.00
4356;DHT22;64374;51.482;7.408;2023-03-01T13:28:51;15.30;61.60
4356;DHT22;64374;51.482;7.408;2023-03-01T13:34:59;16.60;57.90
4356;DHT22;64374;51.482;7.408;2023-03-01T13:37:36;17.40;56.90
4356;DHT22;64374;51.482;7.408;2023-03-01T13:43:31;19.30;54.00
4356;DHT22;64374;51.482;7.408;2023-03-01T13:46:02;19.50;51.50
4356;DHT22;64374;51.482;7.408;2023-03-01T13:48:37;20.00;50.90
4356;DHT22;64374;51.482;7.408;2023-03-01T13:51:09;20.00;48.50
4356;DHT22;64374;51.482;7.408;2023-03-01T13:53:48;20.30;47.90
4356;DHT22;64374;51.482;7.408;2023-03-01T13:56:18;20.40;47.60
4356;DHT22;64374;51.482;7.408;2023-03-01T13:58:51;21.30;48.30
4356;DHT22;64374;51.482;7.408;2023-03-01T14:01:24;22.30;48.50
4356;DHT22;64374;51.482;7.408;2023-03-01T14:03:53;22.70;46.30
4356;DHT22;64374;51.482;7.408;2023-03-01T14:06:24;22.40;43.90
4356;DHT22;64374;51.482;7.408;2023-03-01T14:09:04;21.90;43.30
4356;DHT22;64374;51.482;7.408;2023-03-01T14:12:13;21.90;42.40
4356;DHT22;64374;51.482;7.408;2023-03-01T14:14:52;22.40;42.10
4356;DHT22;64374;51.482;7.408;2023-03-01T14:17:52;21.80;41.30
4356;DHT22;64374;51.482;7.408;2023-03-01T14:20:28;21.90;40.80
4356;DHT22;64374;51.482;7.408;2023-03-01T14:22:59;21.60;40.60
4356;DHT22;64374;51.482;7.408;2023-03-01T14:25:30;22.00;42.10
4356;DHT22;64374;51.482;7.408;2023-03-01T14:28:03;21.90;41.40
4356;DHT22;64374;51.482;7.408;2023-03-01T14:30:38;22.20;41.10
4356;DHT22;64374;51.482;7.408;2023-03-01T14:33:18;22.10;40.50
4356;DHT22;64374;51.482;7.408;2023-03-01T14:36:09;21.90;39.70
4356;DHT22;64374;51.482;7.408;2023-03-01T14:38:39;21.80;39.80
4356;DHT22;64374;51.482;7.408;2023-03-01T14:41:12;22.10;39.10
4356;DHT22;64374;51.482;7.408;2023-03-01T14:43:44;21.90;39.70
4356;DHT22;64374;51.482;7.408;2023-03-01T14:46:19;21.30;39.60
4356;DHT22;64374;51.482;7.408;2023-03-01T14:48:53;20.80;40.00
4356;DHT22;64374;51.482;7.408;2023-03-01T14:51:22;20.20;40.40
4356;DHT22;64374;51.482;7.408;2023-03-01T14:53:51;19.40;40.90
4356;DHT22;64374;51.482;7.408;2023-03-01T14:56:22;18.70;41.40
4356;DHT22;64374;51.482;7.408;2023-03-01T14:58:52;18.30;42.20
4356;DHT22;64374;51.482;7.408;2023-03-01T15:01:21;18.00;42.40
4356;DHT22;64374;51.482;7.408;2023-03-01T15:03:49;17.90;42.70
4356;DHT22;64374;51.482;7.408;2023-03-01T15:06:22;17.20;42.20
4356;DHT22;64374;51.482;7.408;2023-03-01T15:08:52;17.20;42.70
4356;DHT22;64374;51.482;7.408;2023-03-01T15:11:26;16.90;42.60
4356;DHT22;64374;51.482;7.408;2023-03-01T15:13:55;16.30;43.00
4356;DHT22;64374;51.482;7.408;2023-03-01T15:16:26;15.90;43.30
4356;DHT22;64374;51.482;7.408;2023-03-01T15:18:59;15.80;44.00
4356;DHT22;64374;51.482;7.408;2023-03-01T15:21:31;15.90;43.80
4356;DHT22;64374;51.482;7.408;2023-03-01T15:24:03;15.60;44.80
4356;DHT22;64374;51.482;7.408;2023-03-01T15:26:39;15.30;44.20
4356;DHT22;64374;51.482;7.408;2023-03-01T15:29:16;15.20;44.30
4356;DHT22;64374;51.482;7.408;2023-03-01T15:31:54;15.40;45.80
4356;DHT22;64374;51.482;7.408;2023-03-01T15:34:25;15.20;45.20
4356;DHT22;64374;51.482;7.408;2023-03-01T15:36:55;15.10;45.40
4356;DHT22;64374;51.482;7.408;2023-03-01T15:39:47;14.80;45.40
4356;DHT22;64374;51.482;7.408;2023-03-01T15:45:23;14.60;45.70
4356;DHT22;64374;51.482;7.408;2023-03-01T15:47:56;14.40;46.40
4356;DHT22;64374;51.482;7.408;2023-03-01T15:50:28;14.40;46.60
4356;DHT22;64374;51.482;7.408;2023-03-01T15:52:58;14.40;46.70
4356;DHT22;64374;51.482;7.408;2023-03-01T15:55:29;14.30;46.30
4356;DHT22;64374;51.482;7.408;2023-03-01T15:58:02;14.10;46.60
4356;DHT22;64374;51.482;7.408;2023-03-01T16:00:33;14.00;46.80
4356;DHT22;64374;51.482;7.408;2023-03-01T16:03:01;14.10;47.40
4356;DHT22;64374;51.482;7.408;2023-03-01T16:05:31;14.10;47.60
4356;DHT22;64374;51.482;7.408;2023-03-01T16:08:02;14.00;47.10
4356;DHT22;64374;51.482;7.408;2023-03-01T16:10:33;13.70;47.30
4356;DHT22;64374;51.482;7.408;2023-03-01T16:13:02;13.40;47.60
4356;DHT22;64374;51.482;7.408;2023-03-01T16:15:34;13.60;47.70
4356;DHT22;64374;51.482;7.408;2023-03-01T16:18:03;13.50;47.50
4356;DHT22;64374;51.482;7.408;2023-03-01T16:20:34;13.50;47.90
4356;DHT22;64374;51.482;7.408;2023-03-01T16:23:06;13.40;48.30
4356;DHT22;64374;51.482;7.408;2023-03-01T16:25:35;13.30;47.90
4356;DHT22;64374;51.482;7.408;2023-03-01T16:28:05;13.00;48.30
4356;DHT22;64374;51.482;7.408;2023-03-01T16:30:38;13.00;48.70
4356;DHT22;64374;51.482;7.408;2023-03-01T16:33:07;13.00;48.70
4356;DHT22;64374;51.482;7.408;2023-03-01T16:35:52;12.60;48.80
4356;DHT22;64374;51.482;7.408;2023-03-01T16:38:21;12.50;49.40
4356;DHT22;64374;51.482;7.408;2023-03-01T16:40:51;12.30;49.50
4356;DHT22;64374;51.482;7.408;2023-03-01T16:43:20;12.20;50.20
4356;DHT22;64374;51.482;7.408;2023-03-01T16:45:50;12.30;50.20
4356;DHT22;64374;51.482;7.408;2023-03-01T16:48:18;12.30;50.20
4356;DHT22;64374;51.482;7.408;2023-03-01T16:50:55;12.20;50.30